sensor_id;sensor_type;location;lat;lon;timestamp;P1;durP1;ratioP1;P2;durP2;ratioP2
53714;SDS011;39608;55.630;37.864;2023-04-22T00:03:36;4.05;;;1.27;;
53714;SDS011;39608;55.630;37.864;2023-04-22T00:08:43;5.70;;;1.50;;
53714;SDS011;39608;55.630;37.864;2023-04-22T00:13:48;4.47;;;1.38;;
53714;SDS011;39608;55.630;37.864;2023-04-22T00:18:53;3.88;;;1.30;;
53714;SDS011;39608;55.630;37.864;2023-04-22T00:23:59;5.05;;;0.98;;
53714;SDS011;39608;55.630;37.864;2023-04-22T00:29:02;2.72;;;1.35;;
53714;SDS011;39608;55.630;37.864;2023-04-22T00:34:04;3.13;;;1.35;;
53714;SDS011;39608;55.630;37.864;2023-04-22T00:39:08;2.38;;;1.08;;
53714;SDS011;39608;55.630;37.864;2023-04-22T00:44:16;2.65;;;1.35;;
53714;SDS011;39608;55.630;37.864;2023-04-22T00:49:19;3.40;;;1.10;;
53714;SDS011;39608;55.630;37.864;2023-04-22T00:54:24;6.38;;;1.40;;
53714;SDS011;39608;55.630;37.864;2023-04-22T00:59:31;4.82;;;1.30;;
53714;SDS011;39608;55.630;37.864;2023-04-22T01:04:34;3.28;;;1.48;;
53714;SDS011;39608;55.630;37.864;2023-04-22T01:09:38;3.90;;;1.35;;
53714;SDS011;39608;55.630;37.864;2023-04-22T01:14:42;2.28;;;1.13;;
53714;SDS011;39608;55.630;37.864;2023-04-22T01:19:44;4.28;;;1.50;;
53714;SDS011;39608;55.630;37.864;2023-04-22T01:24:48;6.70;;;1.55;;
53714;SDS011;39608;55.630;37.864;2023-04-22T01:29:51;3.92;;;1.08;;
53714;SDS011;39608;55.630;37.864;2023-04-22T01:34:53;1.90;;;0.90;;
53714;SDS011;39608;55.630;37.864;2023-04-22T01:39:57;1.83;;;1.20;;
53714;SDS011;39608;55.630;37.864;2023-04-22T01:45:01;1.83;;;1.20;;
53714;SDS011;39608;55.630;37.864;2023-04-22T01:50:05;0.98;;;0.98;;
53714;SDS011;39608;55.630;37.864;2023-04-22T01:55:10;3.08;;;1.25;;
53714;SDS011;39608;55.630;37.864;2023-04-22T02:00:12;1.88;;;1.20;;
53714;SDS011;39608;55.630;37.864;2023-04-22T02:05:17;1.58;;;1.30;;
53714;SDS011;39608;55.630;37.864;2023-04-22T02:10:21;2.17;;;1.13;;
53714;SDS011;39608;55.630;37.864;2023-04-22T02:15:23;4.45;;;1.48;;
53714;SDS011;39608;55.630;37.864;2023-04-22T02:20:25;4.75;;;1.20;;
53714;SDS011;39608;55.630;37.864;2023-04-22T02:25:29;4.32;;;1.25;;
53714;SDS011;39608;55.630;37.864;2023-04-22T02:30:31;2.03;;;1.02;;
53714;SDS011;39608;55.630;37.864;2023-04-22T02:35:33;3.58;;;1.33;;
53714;SDS011;39608;55.630;37.864;2023-04-22T02:40:36;3.15;;;1.42;;
53714;SDS011;39608;55.630;37.864;2023-04-22T02:45:39;2.85;;;1.25;;
53714;SDS011;39608;55.630;37.864;2023-04-22T02:50:41;4.32;;;1.48;;
53714;SDS011;39608;55.630;37.864;2023-04-22T02:55:44;1.65;;;1.30;;
53714;SDS011;39608;55.630;37.864;2023-04-22T03:00:46;3.05;;;1.48;;
53714;SDS011;39608;55.630;37.864;2023-04-22T03:05:48;3.15;;;1.60;;
53714;SDS011;39608;55.630;37.864;2023-04-22T03:10:52;2.50;;;1.40;;
53714;SDS011;39608;55.630;37.864;2023-04-22T03:15:54;5.55;;;1.65;;
53714;SDS011;39608;55.630;37.864;2023-04-22T03:20:56;4.03;;;1.48;;
53714;SDS011;39608;55.630;37.864;2023-04-22T03:26:01;6.45;;;1.75;;
53714;SDS011;39608;55.630;37.864;2023-04-22T03:31:03;2.65;;;1.20;;
53714;SDS011;39608;55.630;37.864;2023-04-22T03:36:06;3.22;;;1.20;;
53714;SDS011;39608;55.630;37.864;2023-04-22T03:41:09;6.50;;;1.50;;
53714;SDS011;39608;55.630;37.864;2023-04-22T03:46:11;4.60;;;1.80;;
53714;SDS011;39608;55.630;37.864;2023-04-22T03:51:13;5.32;;;1.80;;
53714;SDS011;39608;55.630;37.864;2023-04-22T03:56:17;5.63;;;1.88;;
53714;SDS011;39608;55.630;37.864;2023-04-22T04:01:19;6.07;;;1.65;;
53714;SDS011;39608;55.630;37.864;2023-04-22T04:06:22;2.35;;;1.40;;
53714;SDS011;39608;55.630;37.864;2023-04-22T04:11:26;5.40;;;1.73;;
53714;SDS011;39608;55.630;37.864;2023-04-22T04:16:28;5.78;;;2.40;;
53714;SDS011;39608;55.630;37.864;2023-04-22T04:21:30;3.15;;;1.75;;
53714;SDS011;39608;55.630;37.864;2023-04-22T04:26:34;2.67;;;1.83;;
53714;SDS011;39608;55.630;37.864;2023-04-22T04:31:37;7.30;;;1.77;;
53714;SDS011;39608;55.630;37.864;2023-04-22T04:36:39;3.53;;;1.80;;
53714;SDS011;39608;55.630;37.864;2023-04-22T04:41:42;3.78;;;1.88;;
53714;SDS011;39608;55.630;37.864;2023-04-22T04:46:44;6.57;;;2.00;;
53714;SDS011;39608;55.630;37.864;2023-04-22T04:51:46;16.63;;;2.10;;
53714;SDS011;39608;55.630;37.864;2023-04-22T04:56:50;3.90;;;1.95;;
53714;SDS011;39608;55.630;37.864;2023-04-22T05:01:52;3.05;;;2.13;;
53714;SDS011;39608;55.630;37.864;2023-04-22T05:06:54;6.15;;;2.38;;
53714;SDS011;39608;55.630;37.864;2023-04-22T05:11:58;9.95;;;3.03;;
53714;SDS011;39608;55.630;37.864;2023-04-22T05:17:00;8.05;;;2.97;;
53714;SDS011;39608;55.630;37.864;2023-04-22T05:22:02;11.80;;;2.92;;
53714;SDS011;39608;55.630;37.864;2023-04-22T05:27:06;6.65;;;2.53;;
53714;SDS011;39608;55.630;37.864;2023-04-22T05:32:08;6.40;;;2.25;;
53714;SDS011;39608;55.630;37.864;2023-04-22T05:37:10;5.18;;;2.50;;
53714;SDS011;39608;55.630;37.864;2023-04-22T05:42:14;7.35;;;2.25;;
53714;SDS011;39608;55.630;37.864;2023-04-22T05:47:16;7.03;;;2.20;;
53714;SDS011;39608;55.630;37.864;2023-04-22T05:52:18;11.25;;;2.28;;
53714;SDS011;39608;55.630;37.864;2023-04-22T05:57:21;6.78;;;1.92;;
53714;SDS011;39608;55.630;37.864;2023-04-22T06:02:23;8.05;;;2.00;;
53714;SDS011;39608;55.630;37.864;2023-04-22T06:07:26;2.25;;;1.13;;
53714;SDS011;39608;55.630;37.864;2023-04-22T06:12:29;3.83;;;1.02;;
53714;SDS011;39608;55.630;37.864;2023-04-22T06:17:31;3.85;;;1.35;;
53714;SDS011;39608;55.630;37.864;2023-04-22T06:22:33;2.40;;;1.02;;
53714;SDS011;39608;55.630;37.864;2023-04-22T06:27:37;1.77;;;1.00;;
53714;SDS011;39608;55.630;37.864;2023-04-22T06:32:39;3.60;;;0.90;;
53714;SDS011;39608;55.630;37.864;2023-04-22T06:37:41;5.63;;;1.10;;
53714;SDS011;39608;55.630;37.864;2023-04-22T06:42:45;6.85;;;0.80;;
53714;SDS011;39608;55.630;37.864;2023-04-22T06:47:47;2.75;;;0.90;;
53714;SDS011;39608;55.630;37.864;2023-04-22T06:52:49;6.75;;;1.13;;
53714;SDS011;39608;55.630;37.864;2023-04-22T06:57:53;2.00;;;1.08;;
53714;SDS011;39608;55.630;37.864;2023-04-22T07:02:55;1.10;;;0.63;;
53714;SDS011;39608;55.630;37.864;2023-04-22T07:07:57;1.23;;;0.60;;
53714;SDS011;39608;55.630;37.864;2023-04-22T07:13:02;2.65;;;1.05;;
53714;SDS011;39608;55.630;37.864;2023-04-22T07:18:04;4.22;;;1.10;;
53714;SDS011;39608;55.630;37.864;2023-04-22T07:23:07;0.80;;;0.70;;
53714;SDS011;39608;55.630;37.864;2023-04-22T07:28:10;6.63;;;0.95;;
53714;SDS011;39608;55.630;37.864;2023-04-22T07:33:12;0.80;;;0.80;;
53714;SDS011;39608;55.630;37.864;2023-04-22T07:38:14;2.40;;;0.82;;
53714;SDS011;39608;55.630;37.864;2023-04-22T07:43:18;3.65;;;1.02;;
53714;SDS011;39608;55.630;37.864;2023-04-22T07:48:20;2.33;;;0.90;;
53714;SDS011;39608;55.630;37.864;2023-04-22T07:53:23;5.18;;;1.05;;
53714;SDS011;39608;55.630;37.864;2023-04-22T07:58:26;2.45;;;0.75;;
53714;SDS011;39608;55.630;37.864;2023-04-22T08:03:29;1.38;;;0.80;;
53714;SDS011;39608;55.630;37.864;2023-04-22T08:08:31;0.77;;;0.77;;
53714;SDS011;39608;55.630;37.864;2023-04-22T08:13:34;2.20;;;1.10;;
53714;SDS011;39608;55.630;37.864;2023-04-22T08:18:36;3.03;;;0.70;;
53714;SDS011;39608;55.630;37.864;2023-04-22T08:23:38;3.58;;;0.85;;
53714;SDS011;39608;55.630;37.864;2023-04-22T08:28:42;1.05;;;0.60;;
53714;SDS011;39608;55.630;37.864;2023-04-22T08:33:44;2.83;;;0.80;;
53714;SDS011;39608;55.630;37.864;2023-04-22T08:38:46;1.00;;;0.82;;
53714;SDS011;39608;55.630;37.864;2023-04-22T08:43:50;1.98;;;0.80;;
53714;SDS011;39608;55.630;37.864;2023-04-22T08:48:53;3.75;;;0.75;;
53714;SDS011;39608;55.630;37.864;2023-04-22T08:53:56;2.33;;;0.90;;
53714;SDS011;39608;55.630;37.864;2023-04-22T08:58:59;4.43;;;0.93;;
53714;SDS011;39608;55.630;37.864;2023-04-22T09:04:02;2.25;;;0.85;;
53714;SDS011;39608;55.630;37.864;2023-04-22T09:09:04;2.22;;;0.80;;
53714;SDS011;39608;55.630;37.864;2023-04-22T09:14:09;11.45;;;1.25;;
53714;SDS011;39608;55.630;37.864;2023-04-22T09:19:11;4.45;;;1.05;;
53714;SDS011;39608;55.630;37.864;2023-04-22T09:24:15;2.15;;;0.90;;
53714;SDS011;39608;55.630;37.864;2023-04-22T09:29:18;2.80;;;1.17;;
53714;SDS011;39608;55.630;37.864;2023-04-22T09:34:20;3.92;;;0.98;;
53714;SDS011;39608;55.630;37.864;2023-04-22T09:39:23;1.65;;;0.95;;
53714;SDS011;39608;55.630;37.864;2023-04-22T09:44:26;5.50;;;0.98;;
53714;SDS011;39608;55.630;37.864;2023-04-22T09:49:28;6.50;;;1.20;;
53714;SDS011;39608;55.630;37.864;2023-04-22T09:54:30;4.45;;;0.80;;
53714;SDS011;39608;55.630;37.864;2023-04-22T09:59:34;6.22;;;1.10;;
53714;SDS011;39608;55.630;37.864;2023-04-22T10:04:36;2.80;;;0.80;;
53714;SDS011;39608;55.630;37.864;2023-04-22T10:09:39;3.58;;;0.93;;
53714;SDS011;39608;55.630;37.864;2023-04-22T10:14:43;5.88;;;1.65;;
53714;SDS011;39608;55.630;37.864;2023-04-22T10:19:46;3.97;;;1.50;;
53714;SDS011;39608;55.630;37.864;2023-04-22T10:24:49;4.47;;;1.10;;
53714;SDS011;39608;55.630;37.864;2023-04-22T10:29:56;2.50;;;1.08;;
53714;SDS011;39608;55.630;37.864;2023-04-22T10:35:12;5.72;;;1.17;;
53714;SDS011;39608;55.630;37.864;2023-04-22T10:40:16;6.32;;;1.30;;
53714;SDS011;39608;55.630;37.864;2023-04-22T10:45:24;6.57;;;1.33;;
53714;SDS011;39608;55.630;37.864;2023-04-22T10:50:30;7.55;;;1.75;;
53714;SDS011;39608;55.630;37.864;2023-04-22T10:55:48;2.53;;;1.48;;
53714;SDS011;39608;55.630;37.864;2023-04-22T11:00:52;4.43;;;2.28;;
53714;SDS011;39608;55.630;37.864;2023-04-22T11:06:11;3.78;;;1.38;;
53714;SDS011;39608;55.630;37.864;2023-04-22T11:11:15;9.98;;;1.90;;
53714;SDS011;39608;55.630;37.864;2023-04-22T11:16:21;7.35;;;1.42;;
53714;SDS011;39608;55.630;37.864;2023-04-22T11:21:23;1.42;;;1.30;;
53714;SDS011;39608;55.630;37.864;2023-04-22T11:26:33;30.20;;;2.60;;
53714;SDS011;39608;55.630;37.864;2023-04-22T11:31:38;2.20;;;1.30;;
53714;SDS011;39608;55.630;37.864;2023-04-22T11:36:47;5.65;;;1.30;;
53714;SDS011;39608;55.630;37.864;2023-04-22T11:41:49;3.67;;;1.38;;
53714;SDS011;39608;55.630;37.864;2023-04-22T11:46:56;6.47;;;1.65;;
53714;SDS011;39608;55.630;37.864;2023-04-22T11:52:00;5.45;;;1.35;;
53714;SDS011;39608;55.630;37.864;2023-04-22T11:57:02;5.07;;;1.90;;
53714;SDS011;39608;55.630;37.864;2023-04-22T12:02:07;2.13;;;1.40;;
53714;SDS011;39608;55.630;37.864;2023-04-22T12:07:11;2.63;;;1.40;;
53714;SDS011;39608;55.630;37.864;2023-04-22T12:12:17;6.55;;;1.23;;
53714;SDS011;39608;55.630;37.864;2023-04-22T12:17:22;2.90;;;1.13;;
53714;SDS011;39608;55.630;37.864;2023-04-22T12:22:25;3.13;;;1.13;;
53714;SDS011;39608;55.630;37.864;2023-04-22T12:27:28;10.77;;;1.42;;
53714;SDS011;39608;55.630;37.864;2023-04-22T12:32:33;2.33;;;1.20;;
53714;SDS011;39608;55.630;37.864;2023-04-22T12:37:35;5.78;;;1.25;;
53714;SDS011;39608;55.630;37.864;2023-04-22T12:42:39;4.43;;;1.35;;
53714;SDS011;39608;55.630;37.864;2023-04-22T12:47:42;6.88;;;2.05;;
53714;SDS011;39608;55.630;37.864;2023-04-22T12:52:45;3.55;;;1.73;;
53714;SDS011;39608;55.630;37.864;2023-04-22T12:57:48;7.25;;;1.55;;
53714;SDS011;39608;55.630;37.864;2023-04-22T13:02:52;3.28;;;1.30;;
53714;SDS011;39608;55.630;37.864;2023-04-22T13:07:54;7.43;;;1.52;;
53714;SDS011;39608;55.630;37.864;2023-04-22T13:12:56;2.63;;;1.50;;
53714;SDS011;39608;55.630;37.864;2023-04-22T13:18:04;2.28;;;1.10;;
53714;SDS011;39608;55.630;37.864;2023-04-22T13:23:07;3.30;;;1.20;;
53714;SDS011;39608;55.630;37.864;2023-04-22T13:28:09;2.33;;;1.60;;
53714;SDS011;39608;55.630;37.864;2023-04-22T13:33:13;1.45;;;1.08;;
53714;SDS011;39608;55.630;37.864;2023-04-22T13:38:15;18.02;;;2.33;;
53714;SDS011;39608;55.630;37.864;2023-04-22T13:43:17;4.80;;;1.60;;
53714;SDS011;39608;55.630;37.864;2023-04-22T13:48:21;6.35;;;1.10;;
53714;SDS011;39608;55.630;37.864;2023-04-22T13:53:23;2.97;;;1.50;;
53714;SDS011;39608;55.630;37.864;2023-04-22T13:58:25;4.03;;;1.35;;
53714;SDS011;39608;55.630;37.864;2023-04-22T14:03:29;17.17;;;3.83;;
53714;SDS011;39608;55.630;37.864;2023-04-22T14:08:31;2.78;;;1.50;;
53714;SDS011;39608;55.630;37.864;2023-04-22T14:13:33;4.13;;;1.27;;
53714;SDS011;39608;55.630;37.864;2023-04-22T14:18:37;3.85;;;1.95;;
53714;SDS011;39608;55.630;37.864;2023-04-22T14:23:41;4.28;;;1.90;;
53714;SDS011;39608;55.630;37.864;2023-04-22T14:28:43;3.50;;;1.90;;
53714;SDS011;39608;55.630;37.864;2023-04-22T14:33:46;5.47;;;1.80;;
53714;SDS011;39608;55.630;37.864;2023-04-22T15:30:01;3.28;;;1.17;;
53714;SDS011;39608;55.630;37.864;2023-04-22T15:35:06;18.95;;;1.77;;
53714;SDS011;39608;55.630;37.864;2023-04-22T15:40:09;5.63;;;1.80;;
53714;SDS011;39608;55.630;37.864;2023-04-22T15:45:16;2.00;;;1.52;;
53714;SDS011;39608;55.630;37.864;2023-04-22T15:50:28;6.85;;;1.77;;
53714;SDS011;39608;55.630;37.864;2023-04-22T15:55:31;4.38;;;1.73;;
53714;SDS011;39608;55.630;37.864;2023-04-22T16:00:38;2.37;;;1.70;;
53714;SDS011;39608;55.630;37.864;2023-04-22T16:05:43;4.25;;;1.73;;
53714;SDS011;39608;55.630;37.864;2023-04-22T16:10:49;3.55;;;1.73;;
53714;SDS011;39608;55.630;37.864;2023-04-22T16:15:53;3.40;;;2.10;;
53714;SDS011;39608;55.630;37.864;2023-04-22T16:20:56;5.63;;;2.15;;
53714;SDS011;39608;55.630;37.864;2023-04-22T16:26:02;6.55;;;1.65;;
53714;SDS011;39608;55.630;37.864;2023-04-22T16:31:07;5.22;;;1.80;;
53714;SDS011;39608;55.630;37.864;2023-04-22T16:36:16;28.73;;;2.30;;
53714;SDS011;39608;55.630;37.864;2023-04-22T16:41:32;8.10;;;2.20;;
53714;SDS011;39608;55.630;37.864;2023-04-22T16:46:46;9.75;;;2.13;;
53714;SDS011;39608;55.630;37.864;2023-04-22T16:52:41;9.30;;;2.73;;
53714;SDS011;39608;55.630;37.864;2023-04-22T16:57:59;3.13;;;2.20;;
53714;SDS011;39608;55.630;37.864;2023-04-22T17:03:29;6.20;;;2.72;;
53714;SDS011;39608;55.630;37.864;2023-04-22T17:09:10;8.43;;;2.47;;
53714;SDS011;39608;55.630;37.864;2023-04-22T17:14:49;7.28;;;2.42;;
53714;SDS011;39608;55.630;37.864;2023-04-22T17:20:53;4.25;;;2.30;;
53714;SDS011;39608;55.630;37.864;2023-04-22T17:26:47;7.78;;;2.45;;
53714;SDS011;39608;55.630;37.864;2023-04-22T17:51:01;5.75;;;2.63;;
53714;SDS011;39608;55.630;37.864;2023-04-22T17:57:08;9.05;;;2.33;;
53714;SDS011;39608;55.630;37.864;2023-04-22T18:09:09;10.15;;;3.30;;
53714;SDS011;39608;55.630;37.864;2023-04-22T18:14:57;7.18;;;3.38;;
53714;SDS011;39608;55.630;37.864;2023-04-22T18:20:43;13.65;;;3.60;;
53714;SDS011;39608;55.630;37.864;2023-04-22T18:26:18;6.07;;;3.13;;
53714;SDS011;39608;55.630;37.864;2023-04-22T18:31:29;10.98;;;3.20;;
53714;SDS011;39608;55.630;37.864;2023-04-22T18:42:35;19.10;;;6.90;;
53714;SDS011;39608;55.630;37.864;2023-04-22T18:48:07;9.88;;;4.90;;
53714;SDS011;39608;55.630;37.864;2023-04-22T18:54:21;10.40;;;4.72;;
53714;SDS011;39608;55.630;37.864;2023-04-22T19:00:09;9.50;;;5.13;;
53714;SDS011;39608;55.630;37.864;2023-04-22T19:05:42;13.13;;;5.72;;
53714;SDS011;39608;55.630;37.864;2023-04-22T19:11:13;17.77;;;6.72;;
53714;SDS011;39608;55.630;37.864;2023-04-22T19:16:44;23.80;;;7.28;;
53714;SDS011;39608;55.630;37.864;2023-04-22T19:22:07;15.07;;;6.68;;
53714;SDS011;39608;55.630;37.864;2023-04-22T19:27:45;18.10;;;6.03;;
53714;SDS011;39608;55.630;37.864;2023-04-22T19:33:31;23.45;;;6.72;;
53714;SDS011;39608;55.630;37.864;2023-04-22T19:38:59;18.55;;;6.40;;
53714;SDS011;39608;55.630;37.864;2023-04-22T19:44:20;24.42;;;7.30;;
53714;SDS011;39608;55.630;37.864;2023-04-22T19:50:06;29.40;;;9.40;;
53714;SDS011;39608;55.630;37.864;2023-04-22T19:55:35;18.17;;;8.98;;
53714;SDS011;39608;55.630;37.864;2023-04-22T20:00:59;29.05;;;8.45;;
53714;SDS011;39608;55.630;37.864;2023-04-22T20:06:46;24.60;;;8.38;;
53714;SDS011;39608;55.630;37.864;2023-04-22T20:12:14;27.88;;;10.95;;
53714;SDS011;39608;55.630;37.864;2023-04-22T20:23:39;44.78;;;11.77;;
53714;SDS011;39608;55.630;37.864;2023-04-22T20:29:01;26.00;;;8.18;;
53714;SDS011;39608;55.630;37.864;2023-04-22T20:39:42;23.23;;;10.40;;
53714;SDS011;39608;55.630;37.864;2023-04-22T20:44:53;36.10;;;9.48;;
53714;SDS011;39608;55.630;37.864;2023-04-22T20:50:22;46.08;;;10.93;;
53714;SDS011;39608;55.630;37.864;2023-04-22T20:55:50;31.38;;;9.93;;
53714;SDS011;39608;55.630;37.864;2023-04-22T21:01:29;32.83;;;9.25;;
53714;SDS011;39608;55.630;37.864;2023-04-22T21:06:40;35.13;;;9.93;;
53714;SDS011;39608;55.630;37.864;2023-04-22T21:11:57;29.17;;;10.48;;
53714;SDS011;39608;55.630;37.864;2023-04-22T21:17:30;31.83;;;9.73;;
53714;SDS011;39608;55.630;37.864;2023-04-22T21:23:07;28.65;;;9.38;;
53714;SDS011;39608;55.630;37.864;2023-04-22T21:28:35;41.40;;;10.88;;
53714;SDS011;39608;55.630;37.864;2023-04-22T21:34:08;24.80;;;9.38;;
53714;SDS011;39608;55.630;37.864;2023-04-22T21:45:20;34.33;;;8.82;;
53714;SDS011;39608;55.630;37.864;2023-04-22T21:51:13;19.95;;;7.03;;
53714;SDS011;39608;55.630;37.864;2023-04-22T22:37:33;20.10;;;8.00;;
